»·PEaware :: RNGR824 KEFD-KNGP

RNGR824 :: KEFD-KNGP

FLIGHT INFORMATION

Flight Status: Arrived
Operator: Unknown
More flights by this operator :: More flights under this callsign
Pilot: USN Avenger (31125)
Aircraft: BEECH AIRCRAFT T-6A TEXAN
(TEX2)
More flights by this aircraft type
Origin: KEFD Ellington
United States
Destination: KNGP Corpus Christi NAS/Truax
United States
More flights between these airports :: More routes between these airports
Route: KARRR7 PSX V13 CRP
File this flight plan on PilotEdge
Remarks:
Altitude:
(Current/Filed)
12,000ft
Speed:
(Current/Filed)
242kts
Departed: 01-Dec-23 02:28 PM
Arrived: 01-Dec-23 03:14 PM
Distance/Time
Traveled:
161nm/0:45
Distance/Time
To Go:
Arrived

Flight Plot

Page will automatically refresh every two minutes.

Flight plan parsing failed; only flown route is shown


Map Options




Map Legend


Flown Route
Filed Route
Departure Airport
Arrival Airport
Navaid (VOR, NDB)
Fix

Horizontal Profiles

Position Reports

Time Latitude Longitude Heading Altitude Ground
Speed
01-Dec-23 14:18 27.698540 -97.284283 158 22ft 0kts
01-Dec-23 14:19 29.617873 -95.164385 178 33ft 0kts
01-Dec-23 14:20 29.617873 -95.164385 178 33ft 0kts
01-Dec-23 14:21 29.617873 -95.164385 178 33ft 0kts
01-Dec-23 14:22 29.594044 -95.163830 358 36ft 0kts
01-Dec-23 14:23 29.594229 -95.163831 0 36ft 0kts
01-Dec-23 14:24 29.594230 -95.163831 0 36ft 0kts
01-Dec-23 14:25 29.594232 -95.163831 0 36ft 0kts
01-Dec-23 14:26 29.594234 -95.163831 0 36ft 0kts
01-Dec-23 14:27 29.618195 -95.164717 358 716ft 159kts
01-Dec-23 14:28 29.665864 -95.166856 354 3258ft 175kts
01-Dec-23 14:29 29.670050 -95.207412 207 5725ft 186kts
01-Dec-23 14:31 29.619759 -95.236289 205 8004ft 217kts
01-Dec-23 14:32 29.564969 -95.270982 201 10473ft 226kts
01-Dec-23 14:33 29.505040 -95.304081 201 12047ft 270kts
01-Dec-23 14:34 29.429426 -95.344587 202 11862ft 331kts
01-Dec-23 14:35 29.353208 -95.402813 221 12083ft 333kts
01-Dec-23 14:36 29.289002 -95.478993 252 12035ft 324kts
01-Dec-23 14:37 29.257553 -95.574414 256 12479ft 328kts
01-Dec-23 14:38 29.238236 -95.678428 257 12074ft 344kts
01-Dec-23 14:39 29.206405 -95.780626 249 12036ft 338kts
01-Dec-23 14:40 29.143577 -95.858537 221 11994ft 338kts
01-Dec-23 14:41 29.077309 -95.934576 243 11865ft 338kts
01-Dec-23 14:42 29.030790 -96.025309 225 12082ft 333kts
01-Dec-23 14:43 28.957864 -96.090195 219 12081ft 336kts
01-Dec-23 14:44 28.888531 -96.161933 223 12055ft 339kts
01-Dec-23 14:45 28.819844 -96.233764 215 12041ft 343kts
01-Dec-23 14:46 28.740859 -96.293075 222 11766ft 338kts
01-Dec-23 14:47 28.713915 -96.385726 278 12180ft 319kts
01-Dec-23 14:48 28.678562 -96.481295 238 12205ft 338kts
01-Dec-23 14:49 28.625462 -96.569748 237 11882ft 345kts
01-Dec-23 14:50 28.573654 -96.661536 237 11871ft 334kts
01-Dec-23 14:51 28.527887 -96.753245 246 12126ft 330kts
01-Dec-23 14:52 28.488688 -96.846977 248 12289ft 340kts
01-Dec-23 14:53 28.449809 -96.945644 240 11920ft 343kts
01-Dec-23 14:54 28.380360 -97.016503 215 12076ft 334kts
01-Dec-23 14:55 28.303344 -97.077198 218 11984ft 338kts
01-Dec-23 14:56 28.225890 -97.137715 211 11084ft 322kts
01-Dec-23 14:56 28.159413 -97.167139 174 6944ft 311kts
01-Dec-23 14:57 28.083890 -97.161032 169 3785ft 252kts
01-Dec-23 14:59 28.010816 -97.145361 166 1419ft 209kts
01-Dec-23 15:00 27.958912 -97.134778 173 2173ft 185kts
01-Dec-23 15:00 27.914052 -97.125921 166 2563ft 202kts
01-Dec-23 15:01 27.858361 -97.113111 171 1981ft 202kts
01-Dec-23 15:02 27.803317 -97.102131 170 2087ft 196kts
01-Dec-23 15:03 27.748267 -97.095838 173 2110ft 204kts
01-Dec-23 15:05 27.680809 -97.086808 175 1958ft 206kts
01-Dec-23 15:05 27.633339 -97.082277 176 1934ft 209kts
01-Dec-23 15:06 27.594299 -97.110358 226 2014ft 155kts
01-Dec-23 15:07 27.581439 -97.151088 284 2069ft 144kts
01-Dec-23 15:08 27.598423 -97.183031 312 1704ft 127kts
01-Dec-23 15:09 27.623139 -97.214044 312 1681ft 132kts
01-Dec-23 15:10 27.647370 -97.243112 320 1169ft 126kts
01-Dec-23 15:11 27.672927 -97.270441 315 477ft 129kts
01-Dec-23 15:12 27.691891 -97.291250 315 22ft 46kts
01-Dec-23 15:13 27.693861 -97.292619 44 22ft 0kts

Navigation Log

Ident Type
Flight plan parsing failed, navigation log unavailable